sensor_id;sensor_type;location;lat;lon;timestamp;temperature;humidity
77693;SHT31;66984;47.404;18.836;2023-05-10T00:01:02;13.58;63.15
77693;SHT31;66984;47.404;18.836;2023-05-10T00:02:05;13.56;63.36
77693;SHT31;66984;47.404;18.836;2023-05-10T00:03:08;13.53;63.43
77693;SHT31;66984;47.404;18.836;2023-05-10T00:04:11;13.51;63.47
77693;SHT31;66984;47.404;18.836;2023-05-10T00:05:15;13.54;63.44
77693;SHT31;66984;47.404;18.836;2023-05-10T00:06:17;13.57;63.15
77693;SHT31;66984;47.404;18.836;2023-05-10T00:07:20;13.56;63.20
77693;SHT31;66984;47.404;18.836;2023-05-10T00:08:23;13.54;63.20
77693;SHT31;66984;47.404;18.836;2023-05-10T00:09:26;13.56;63.07
77693;SHT31;66984;47.404;18.836;2023-05-10T00:10:29;13.54;63.18
77693;SHT31;66984;47.404;18.836;2023-05-10T00:11:32;13.53;63.22
77693;SHT31;66984;47.404;18.836;2023-05-10T00:12:35;13.56;63.14
77693;SHT31;66984;47.404;18.836;2023-05-10T00:13:37;13.51;63.26
77693;SHT31;66984;47.404;18.836;2023-05-10T00:14:40;13.48;63.41
77693;SHT31;66984;47.404;18.836;2023-05-10T00:15:43;13.54;63.23
77693;SHT31;66984;47.404;18.836;2023-05-10T00:16:46;13.56;63.17
77693;SHT31;66984;47.404;18.836;2023-05-10T00:17:49;13.56;63.37
77693;SHT31;66984;47.404;18.836;2023-05-10T00:18:52;13.57;63.38
77693;SHT31;66984;47.404;18.836;2023-05-10T00:19:55;13.57;63.27
77693;SHT31;66984;47.404;18.836;2023-05-10T00:20:58;13.58;63.02
77693;SHT31;66984;47.404;18.836;2023-05-10T00:22:01;13.56;62.91
77693;SHT31;66984;47.404;18.836;2023-05-10T00:23:04;13.57;62.96
77693;SHT31;66984;47.404;18.836;2023-05-10T00:24:07;13.58;62.98
77693;SHT31;66984;47.404;18.836;2023-05-10T00:25:10;13.53;63.17
77693;SHT31;66984;47.404;18.836;2023-05-10T00:26:13;13.53;63.28
77693;SHT31;66984;47.404;18.836;2023-05-10T00:27:16;13.51;63.26
77693;SHT31;66984;47.404;18.836;2023-05-10T00:28:19;13.50;63.31
77693;SHT31;66984;47.404;18.836;2023-05-10T00:29:21;13.48;63.27
77693;SHT31;66984;47.404;18.836;2023-05-10T00:30:24;13.48;63.48
77693;SHT31;66984;47.404;18.836;2023-05-10T00:31:27;13.43;63.87
77693;SHT31;66984;47.404;18.836;2023-05-10T00:32:30;13.42;63.91
77693;SHT31;66984;47.404;18.836;2023-05-10T00:33:33;13.39;63.94
77693;SHT31;66984;47.404;18.836;2023-05-10T00:34:36;13.35;64.25
77693;SHT31;66984;47.404;18.836;2023-05-10T00:35:39;13.33;64.22
77693;SHT31;66984;47.404;18.836;2023-05-10T00:36:41;13.27;64.25
77693;SHT31;66984;47.404;18.836;2023-05-10T00:37:44;13.29;64.37
77693;SHT31;66984;47.404;18.836;2023-05-10T00:38:47;13.26;64.45
77693;SHT31;66984;47.404;18.836;2023-05-10T00:39:50;13.22;64.83
77693;SHT31;66984;47.404;18.836;2023-05-10T00:40:53;13.20;64.75
77693;SHT31;66984;47.404;18.836;2023-05-10T00:41:56;13.15;65.15
77693;SHT31;66984;47.404;18.836;2023-05-10T00:42:59;13.15;65.35
77693;SHT31;66984;47.404;18.836;2023-05-10T00:44:03;13.10;65.16
77693;SHT31;66984;47.404;18.836;2023-05-10T00:45:07;13.10;65.37
77693;SHT31;66984;47.404;18.836;2023-05-10T00:46:10;13.12;65.24
77693;SHT31;66984;47.404;18.836;2023-05-10T00:47:13;13.09;65.24
77693;SHT31;66984;47.404;18.836;2023-05-10T00:48:16;13.09;65.27
77693;SHT31;66984;47.404;18.836;2023-05-10T00:49:20;13.10;65.16
77693;SHT31;66984;47.404;18.836;2023-05-10T00:50:23;13.08;65.39
77693;SHT31;66984;47.404;18.836;2023-05-10T00:51:28;13.05;65.43
77693;SHT31;66984;47.404;18.836;2023-05-10T00:52:31;13.06;65.39
77693;SHT31;66984;47.404;18.836;2023-05-10T00:53:34;13.08;65.33
77693;SHT31;66984;47.404;18.836;2023-05-10T00:54:38;13.05;65.34
77693;SHT31;66984;47.404;18.836;2023-05-10T00:55:41;13.06;65.31
77693;SHT31;66984;47.404;18.836;2023-05-10T00:56:44;13.03;65.29
77693;SHT31;66984;47.404;18.836;2023-05-10T00:57:52;13.06;65.29
77693;SHT31;66984;47.404;18.836;2023-05-10T00:58:55;13.00;65.42
77693;SHT31;66984;47.404;18.836;2023-05-10T00:59:59;12.98;65.35
77693;SHT31;66984;47.404;18.836;2023-05-10T01:01:04;12.96;65.44
77693;SHT31;66984;47.404;18.836;2023-05-10T01:02:07;12.96;65.39
77693;SHT31;66984;47.404;18.836;2023-05-10T01:03:10;12.95;65.48
77693;SHT31;66984;47.404;18.836;2023-05-10T01:04:14;12.92;65.69
77693;SHT31;66984;47.404;18.836;2023-05-10T01:05:17;12.85;66.05
77693;SHT31;66984;47.404;18.836;2023-05-10T01:06:21;12.82;66.17
77693;SHT31;66984;47.404;18.836;2023-05-10T01:07:23;12.77;66.33
77693;SHT31;66984;47.404;18.836;2023-05-10T01:08:27;12.79;66.36
77693;SHT31;66984;47.404;18.836;2023-05-10T01:09:30;12.69;66.47
77693;SHT31;66984;47.404;18.836;2023-05-10T01:10:34;12.69;66.47
77693;SHT31;66984;47.404;18.836;2023-05-10T01:11:38;12.67;66.48
77693;SHT31;66984;47.404;18.836;2023-05-10T01:12:44;12.67;66.43
77693;SHT31;66984;47.404;18.836;2023-05-10T01:13:54;12.67;66.48
77693;SHT31;66984;47.404;18.836;2023-05-10T01:15:00;12.62;66.47
77693;SHT31;66984;47.404;18.836;2023-05-10T01:16:03;12.64;66.64
77693;SHT31;66984;47.404;18.836;2023-05-10T01:17:07;12.64;66.58
77693;SHT31;66984;47.404;18.836;2023-05-10T01:18:11;12.57;66.59
77693;SHT31;66984;47.404;18.836;2023-05-10T01:19:25;12.57;66.81
77693;SHT31;66984;47.404;18.836;2023-05-10T01:20:35;12.57;66.86
77693;SHT31;66984;47.404;18.836;2023-05-10T01:29:18;12.38;67.90
77693;SHT31;66984;47.404;18.836;2023-05-10T01:33:24;12.44;67.50
77693;SHT31;66984;47.404;18.836;2023-05-10T01:34:35;12.45;67.56
77693;SHT31;66984;47.404;18.836;2023-05-10T01:35:58;12.45;67.46
77693;SHT31;66984;47.404;18.836;2023-05-10T01:37:07;12.54;67.47
77693;SHT31;66984;47.404;18.836;2023-05-10T01:38:32;12.54;67.34
77693;SHT31;66984;47.404;18.836;2023-05-10T01:41:59;12.52;67.70
77693;SHT31;66984;47.404;18.836;2023-05-10T01:43:09;12.51;67.66
77693;SHT31;66984;47.404;18.836;2023-05-10T01:44:24;12.54;67.71
77693;SHT31;66984;47.404;18.836;2023-05-10T01:45:41;12.52;67.46
77693;SHT31;66984;47.404;18.836;2023-05-10T01:46:55;12.51;67.44
77693;SHT31;66984;47.404;18.836;2023-05-10T01:48:09;12.52;67.55
77693;SHT31;66984;47.404;18.836;2023-05-10T01:49:24;12.50;67.72
77693;SHT31;66984;47.404;18.836;2023-05-10T01:50:29;12.51;67.67
77693;SHT31;66984;47.404;18.836;2023-05-10T01:51:44;12.54;67.57
77693;SHT31;66984;47.404;18.836;2023-05-10T01:52:54;12.54;67.46
77693;SHT31;66984;47.404;18.836;2023-05-10T01:54:02;12.54;67.56
77693;SHT31;66984;47.404;18.836;2023-05-10T01:55:09;12.55;67.54
77693;SHT31;66984;47.404;18.836;2023-05-10T01:56:12;12.55;67.45
77693;SHT31;66984;47.404;18.836;2023-05-10T01:57:16;12.54;67.51
77693;SHT31;66984;47.404;18.836;2023-05-10T01:58:31;12.58;67.53
77693;SHT31;66984;47.404;18.836;2023-05-10T01:59:36;12.61;67.39
77693;SHT31;66984;47.404;18.836;2023-05-10T02:00:44;12.59;67.43
77693;SHT31;66984;47.404;18.836;2023-05-10T02:01:49;12.58;67.47
77693;SHT31;66984;47.404;18.836;2023-05-10T02:02:53;12.57;67.33
77693;SHT31;66984;47.404;18.836;2023-05-10T02:03:58;12.61;67.39
77693;SHT31;66984;47.404;18.836;2023-05-10T02:05:03;12.57;67.61
77693;SHT31;66984;47.404;18.836;2023-05-10T02:06:09;12.54;67.72
77693;SHT31;66984;47.404;18.836;2023-05-10T02:07:14;12.48;67.74
77693;SHT31;66984;47.404;18.836;2023-05-10T02:08:18;12.48;67.75
77693;SHT31;66984;47.404;18.836;2023-05-10T02:09:25;12.50;67.74
77693;SHT31;66984;47.404;18.836;2023-05-10T02:10:32;12.51;67.59
77693;SHT31;66984;47.404;18.836;2023-05-10T02:11:38;12.50;67.61
77693;SHT31;66984;47.404;18.836;2023-05-10T02:12:43;12.50;67.73
77693;SHT31;66984;47.404;18.836;2023-05-10T02:13:49;12.50;67.65
77693;SHT31;66984;47.404;18.836;2023-05-10T02:14:54;12.50;67.61
77693;SHT31;66984;47.404;18.836;2023-05-10T02:15:59;12.51;67.62
77693;SHT31;66984;47.404;18.836;2023-05-10T02:17:04;12.54;67.58
77693;SHT31;66984;47.404;18.836;2023-05-10T02:18:09;12.51;67.61
77693;SHT31;66984;47.404;18.836;2023-05-10T02:19:14;12.44;67.79
77693;SHT31;66984;47.404;18.836;2023-05-10T02:20:18;12.41;68.07
77693;SHT31;66984;47.404;18.836;2023-05-10T02:21:22;12.38;67.97
77693;SHT31;66984;47.404;18.836;2023-05-10T02:22:27;12.36;67.94
77693;SHT31;66984;47.404;18.836;2023-05-10T02:23:31;12.34;68.11
77693;SHT31;66984;47.404;18.836;2023-05-10T02:24:34;12.34;68.12
77693;SHT31;66984;47.404;18.836;2023-05-10T02:25:39;12.41;67.91
77693;SHT31;66984;47.404;18.836;2023-05-10T02:26:43;12.41;67.96
77693;SHT31;66984;47.404;18.836;2023-05-10T02:27:47;12.41;67.74
77693;SHT31;66984;47.404;18.836;2023-05-10T02:28:52;12.41;67.76
77693;SHT31;66984;47.404;18.836;2023-05-10T02:29:56;12.48;67.66
77693;SHT31;66984;47.404;18.836;2023-05-10T02:31:00;12.50;67.61
77693;SHT31;66984;47.404;18.836;2023-05-10T02:32:04;12.52;67.47
77693;SHT31;66984;47.404;18.836;2023-05-10T02:33:07;12.55;67.47
77693;SHT31;66984;47.404;18.836;2023-05-10T02:34:11;12.59;67.44
77693;SHT31;66984;47.404;18.836;2023-05-10T02:35:15;12.61;67.34
77693;SHT31;66984;47.404;18.836;2023-05-10T02:36:20;12.62;67.36
77693;SHT31;66984;47.404;18.836;2023-05-10T02:37:25;12.67;67.26
77693;SHT31;66984;47.404;18.836;2023-05-10T02:38:28;12.68;67.29
77693;SHT31;66984;47.404;18.836;2023-05-10T02:39:33;12.67;67.24
77693;SHT31;66984;47.404;18.836;2023-05-10T02:40:37;12.74;67.08
77693;SHT31;66984;47.404;18.836;2023-05-10T02:41:41;12.77;67.10
77693;SHT31;66984;47.404;18.836;2023-05-10T02:42:47;12.75;67.08
77693;SHT31;66984;47.404;18.836;2023-05-10T02:43:55;12.74;67.06
77693;SHT31;66984;47.404;18.836;2023-05-10T02:45:01;12.78;66.84
77693;SHT31;66984;47.404;18.836;2023-05-10T02:46:05;12.77;66.72
77693;SHT31;66984;47.404;18.836;2023-05-10T02:47:08;12.77;66.69
77693;SHT31;66984;47.404;18.836;2023-05-10T02:48:11;12.78;66.78
77693;SHT31;66984;47.404;18.836;2023-05-10T02:49:15;12.78;66.80
77693;SHT31;66984;47.404;18.836;2023-05-10T02:50:19;12.74;66.88
77693;SHT31;66984;47.404;18.836;2023-05-10T02:51:25;12.77;66.89
77693;SHT31;66984;47.404;18.836;2023-05-10T02:52:39;12.74;67.06
77693;SHT31;66984;47.404;18.836;2023-05-10T02:53:44;12.68;67.09
77693;SHT31;66984;47.404;18.836;2023-05-10T02:54:50;12.74;67.03
77693;SHT31;66984;47.404;18.836;2023-05-10T02:55:58;12.69;67.22
77693;SHT31;66984;47.404;18.836;2023-05-10T02:57:04;12.65;67.46
77693;SHT31;66984;47.404;18.836;2023-05-10T02:58:07;12.62;67.53
77693;SHT31;66984;47.404;18.836;2023-05-10T02:59:10;12.64;67.68
77693;SHT31;66984;47.404;18.836;2023-05-10T03:00:13;12.59;67.51
77693;SHT31;66984;47.404;18.836;2023-05-10T03:01:17;12.58;67.67
77693;SHT31;66984;47.404;18.836;2023-05-10T03:02:20;12.58;67.77
77693;SHT31;66984;47.404;18.836;2023-05-10T03:03:23;12.55;67.75
77693;SHT31;66984;47.404;18.836;2023-05-10T03:04:26;12.58;67.81
77693;SHT31;66984;47.404;18.836;2023-05-10T03:05:29;12.54;68.03
77693;SHT31;66984;47.404;18.836;2023-05-10T03:06:32;12.50;68.06
77693;SHT31;66984;47.404;18.836;2023-05-10T03:07:35;12.44;68.19
77693;SHT31;66984;47.404;18.836;2023-05-10T03:08:38;12.38;68.30
77693;SHT31;66984;47.404;18.836;2023-05-10T03:09:42;12.40;68.28
77693;SHT31;66984;47.404;18.836;2023-05-10T03:11:01;12.38;68.31
77693;SHT31;66984;47.404;18.836;2023-05-10T03:12:15;12.38;68.26
77693;SHT31;66984;47.404;18.836;2023-05-10T03:13:43;12.40;68.22
77693;SHT31;66984;47.404;18.836;2023-05-10T03:16:27;12.41;68.20
77693;SHT31;66984;47.404;18.836;2023-05-10T03:18:49;12.45;68.12
77693;SHT31;66984;47.404;18.836;2023-05-10T03:19:56;12.40;68.30
77693;SHT31;66984;47.404;18.836;2023-05-10T03:21:03;12.36;68.27
77693;SHT31;66984;47.404;18.836;2023-05-10T03:22:10;12.38;68.21
77693;SHT31;66984;47.404;18.836;2023-05-10T03:23:21;12.33;68.14
77693;SHT31;66984;47.404;18.836;2023-05-10T03:24:27;12.27;68.35
77693;SHT31;66984;47.404;18.836;2023-05-10T03:25:31;12.19;68.37
77693;SHT31;66984;47.404;18.836;2023-05-10T03:26:34;12.17;68.33
77693;SHT31;66984;47.404;18.836;2023-05-10T03:27:40;12.19;68.32
77693;SHT31;66984;47.404;18.836;2023-05-10T03:28:45;12.16;68.31
77693;SHT31;66984;47.404;18.836;2023-05-10T03:29:48;12.17;68.04
77693;SHT31;66984;47.404;18.836;2023-05-10T03:30:53;12.17;68.10
77693;SHT31;66984;47.404;18.836;2023-05-10T03:31:58;12.17;68.22
77693;SHT31;66984;47.404;18.836;2023-05-10T03:33:05;12.14;68.11
77693;SHT31;66984;47.404;18.836;2023-05-10T03:34:11;12.16;68.05
77693;SHT31;66984;47.404;18.836;2023-05-10T03:35:14;12.19;68.14
77693;SHT31;66984;47.404;18.836;2023-05-10T03:36:17;12.19;67.97
77693;SHT31;66984;47.404;18.836;2023-05-10T03:37:20;12.16;67.85
77693;SHT31;66984;47.404;18.836;2023-05-10T03:38:23;12.16;67.88
77693;SHT31;66984;47.404;18.836;2023-05-10T03:39:30;12.12;68.06
77693;SHT31;66984;47.404;18.836;2023-05-10T03:40:33;12.12;68.16
77693;SHT31;66984;47.404;18.836;2023-05-10T03:41:36;12.07;68.15
77693;SHT31;66984;47.404;18.836;2023-05-10T03:42:39;12.09;68.14
77693;SHT31;66984;47.404;18.836;2023-05-10T03:43:41;12.10;68.14
77693;SHT31;66984;47.404;18.836;2023-05-10T03:44:44;12.12;67.98
77693;SHT31;66984;47.404;18.836;2023-05-10T03:45:47;12.14;67.84
77693;SHT31;66984;47.404;18.836;2023-05-10T03:46:50;12.14;67.91
77693;SHT31;66984;47.404;18.836;2023-05-10T03:47:53;12.14;67.82
77693;SHT31;66984;47.404;18.836;2023-05-10T03:48:56;12.10;67.94
77693;SHT31;66984;47.404;18.836;2023-05-10T03:49:59;12.14;67.70
77693;SHT31;66984;47.404;18.836;2023-05-10T03:51:02;12.13;67.72
77693;SHT31;66984;47.404;18.836;2023-05-10T03:52:05;12.12;67.95
77693;SHT31;66984;47.404;18.836;2023-05-10T03:53:08;12.10;67.73
77693;SHT31;66984;47.404;18.836;2023-05-10T03:54:11;12.13;67.64
77693;SHT31;66984;47.404;18.836;2023-05-10T03:55:14;12.10;67.65
77693;SHT31;66984;47.404;18.836;2023-05-10T03:56:17;12.12;67.82
77693;SHT31;66984;47.404;18.836;2023-05-10T03:57:20;12.14;67.73
77693;SHT31;66984;47.404;18.836;2023-05-10T03:58:22;12.13;67.76
77693;SHT31;66984;47.404;18.836;2023-05-10T03:59:25;12.13;67.88
77693;SHT31;66984;47.404;18.836;2023-05-10T04:00:28;12.14;67.84
77693;SHT31;66984;47.404;18.836;2023-05-10T04:01:31;12.17;67.82
77693;SHT31;66984;47.404;18.836;2023-05-10T04:02:34;12.12;67.66
77693;SHT31;66984;47.404;18.836;2023-05-10T04:03:37;12.14;67.75
77693;SHT31;66984;47.404;18.836;2023-05-10T04:04:40;12.17;67.77
77693;SHT31;66984;47.404;18.836;2023-05-10T04:05:43;12.16;67.98
77693;SHT31;66984;47.404;18.836;2023-05-10T04:06:46;12.14;67.75
77693;SHT31;66984;47.404;18.836;2023-05-10T04:07:49;12.16;67.67
77693;SHT31;66984;47.404;18.836;2023-05-10T04:08:53;12.16;67.68
77693;SHT31;66984;47.404;18.836;2023-05-10T04:09:56;12.16;67.64
77693;SHT31;66984;47.404;18.836;2023-05-10T04:11:11;12.17;67.57
77693;SHT31;66984;47.404;18.836;2023-05-10T04:12:15;12.19;67.61
77693;SHT31;66984;47.404;18.836;2023-05-10T04:13:18;12.17;67.72
77693;SHT31;66984;47.404;18.836;2023-05-10T04:14:21;12.14;67.79
77693;SHT31;66984;47.404;18.836;2023-05-10T04:15:24;12.16;67.68
77693;SHT31;66984;47.404;18.836;2023-05-10T04:16:27;12.19;67.81
77693;SHT31;66984;47.404;18.836;2023-05-10T04:17:30;12.16;67.88
77693;SHT31;66984;47.404;18.836;2023-05-10T04:18:34;12.16;67.77
77693;SHT31;66984;47.404;18.836;2023-05-10T04:19:37;12.14;67.92
77693;SHT31;66984;47.404;18.836;2023-05-10T04:20:40;12.16;67.95
77693;SHT31;66984;47.404;18.836;2023-05-10T04:21:42;12.17;67.85
77693;SHT31;66984;47.404;18.836;2023-05-10T04:22:45;12.14;67.87
77693;SHT31;66984;47.404;18.836;2023-05-10T04:23:48;12.17;68.08
77693;SHT31;66984;47.404;18.836;2023-05-10T04:24:51;12.13;68.19
77693;SHT31;66984;47.404;18.836;2023-05-10T04:26:01;12.17;68.20
77693;SHT31;66984;47.404;18.836;2023-05-10T04:27:04;12.23;67.90
77693;SHT31;66984;47.404;18.836;2023-05-10T04:28:07;12.23;67.91
77693;SHT31;66984;47.404;18.836;2023-05-10T04:29:10;12.26;67.94
77693;SHT31;66984;47.404;18.836;2023-05-10T04:30:13;12.29;67.75
77693;SHT31;66984;47.404;18.836;2023-05-10T04:31:16;12.31;67.58
77693;SHT31;66984;47.404;18.836;2023-05-10T04:32:19;12.34;67.52
77693;SHT31;66984;47.404;18.836;2023-05-10T04:33:22;12.33;67.62
77693;SHT31;66984;47.404;18.836;2023-05-10T04:34:25;12.34;67.46
77693;SHT31;66984;47.404;18.836;2023-05-10T04:35:28;12.36;67.36
77693;SHT31;66984;47.404;18.836;2023-05-10T04:36:31;12.37;67.45
77693;SHT31;66984;47.404;18.836;2023-05-10T04:37:36;12.40;67.48
77693;SHT31;66984;47.404;18.836;2023-05-10T04:38:39;12.41;67.39
77693;SHT31;66984;47.404;18.836;2023-05-10T04:39:42;12.40;67.34
77693;SHT31;66984;47.404;18.836;2023-05-10T04:40:45;12.42;67.76
77693;SHT31;66984;47.404;18.836;2023-05-10T04:41:48;12.47;67.49
77693;SHT31;66984;47.404;18.836;2023-05-10T04:42:51;12.48;67.44
77693;SHT31;66984;47.404;18.836;2023-05-10T04:43:55;12.50;67.17
77693;SHT31;66984;47.404;18.836;2023-05-10T04:44:58;12.52;67.07
77693;SHT31;66984;47.404;18.836;2023-05-10T04:46:01;12.58;67.06
77693;SHT31;66984;47.404;18.836;2023-05-10T04:47:04;12.61;66.85
77693;SHT31;66984;47.404;18.836;2023-05-10T04:48:07;12.64;66.59
77693;SHT31;66984;47.404;18.836;2023-05-10T04:49:10;12.59;66.76
77693;SHT31;66984;47.404;18.836;2023-05-10T04:50:13;12.65;66.86
77693;SHT31;66984;47.404;18.836;2023-05-10T04:51:16;12.67;66.92
77693;SHT31;66984;47.404;18.836;2023-05-10T04:52:19;12.67;66.98
77693;SHT31;66984;47.404;18.836;2023-05-10T04:53:22;12.69;66.72
77693;SHT31;66984;47.404;18.836;2023-05-10T04:54:25;12.72;66.79
77693;SHT31;66984;47.404;18.836;2023-05-10T04:55:28;12.72;66.68
77693;SHT31;66984;47.404;18.836;2023-05-10T04:56:31;12.74;66.79
77693;SHT31;66984;47.404;18.836;2023-05-10T04:57:34;12.75;66.66
77693;SHT31;66984;47.404;18.836;2023-05-10T04:58:36;12.69;66.49
77693;SHT31;66984;47.404;18.836;2023-05-10T04:59:39;12.75;66.93
77693;SHT31;66984;47.404;18.836;2023-05-10T05:00:42;12.81;66.75
77693;SHT31;66984;47.404;18.836;2023-05-10T05:01:45;12.84;66.67
77693;SHT31;66984;47.404;18.836;2023-05-10T05:02:48;12.82;66.46
77693;SHT31;66984;47.404;18.836;2023-05-10T05:03:51;12.87;66.17
77693;SHT31;66984;47.404;18.836;2023-05-10T05:04:55;12.88;66.14
77693;SHT31;66984;47.404;18.836;2023-05-10T05:06:00;12.89;66.34
77693;SHT31;66984;47.404;18.836;2023-05-10T05:07:03;12.92;66.47
77693;SHT31;66984;47.404;18.836;2023-05-10T05:08:06;12.93;66.50
77693;SHT31;66984;47.404;18.836;2023-05-10T05:09:08;12.98;66.45
77693;SHT31;66984;47.404;18.836;2023-05-10T05:10:12;13.02;66.42
77693;SHT31;66984;47.404;18.836;2023-05-10T05:11:16;13.00;66.04
77693;SHT31;66984;47.404;18.836;2023-05-10T05:12:18;13.05;66.19
77693;SHT31;66984;47.404;18.836;2023-05-10T05:13:21;13.09;66.04
77693;SHT31;66984;47.404;18.836;2023-05-10T05:14:24;13.10;65.95
77693;SHT31;66984;47.404;18.836;2023-05-10T05:15:30;13.13;65.71
77693;SHT31;66984;47.404;18.836;2023-05-10T05:16:33;13.13;66.29
77693;SHT31;66984;47.404;18.836;2023-05-10T05:17:36;13.15;66.05
77693;SHT31;66984;47.404;18.836;2023-05-10T05:18:39;13.19;65.94
77693;SHT31;66984;47.404;18.836;2023-05-10T05:19:42;13.17;65.95
77693;SHT31;66984;47.404;18.836;2023-05-10T05:20:45;13.20;65.98
77693;SHT31;66984;47.404;18.836;2023-05-10T05:21:48;13.24;65.86
77693;SHT31;66984;47.404;18.836;2023-05-10T05:22:50;13.26;65.69
77693;SHT31;66984;47.404;18.836;2023-05-10T05:23:53;13.27;65.78
77693;SHT31;66984;47.404;18.836;2023-05-10T05:24:57;13.32;65.64
77693;SHT31;66984;47.404;18.836;2023-05-10T05:26:05;13.36;65.69
77693;SHT31;66984;47.404;18.836;2023-05-10T05:27:07;13.37;65.61
77693;SHT31;66984;47.404;18.836;2023-05-10T05:28:10;13.43;65.35
77693;SHT31;66984;47.404;18.836;2023-05-10T05:29:13;13.44;65.66
77693;SHT31;66984;47.404;18.836;2023-05-10T05:30:16;13.50;65.15
77693;SHT31;66984;47.404;18.836;2023-05-10T05:31:20;13.56;65.21
77693;SHT31;66984;47.404;18.836;2023-05-10T05:32:23;13.58;64.44
77693;SHT31;66984;47.404;18.836;2023-05-10T05:33:26;13.61;64.58
77693;SHT31;66984;47.404;18.836;2023-05-10T05:34:29;13.60;64.43
77693;SHT31;66984;47.404;18.836;2023-05-10T05:35:33;13.60;64.19
77693;SHT31;66984;47.404;18.836;2023-05-10T05:36:37;13.64;64.32
77693;SHT31;66984;47.404;18.836;2023-05-10T05:37:42;13.66;64.34
77693;SHT31;66984;47.404;18.836;2023-05-10T05:38:45;13.67;64.09
77693;SHT31;66984;47.404;18.836;2023-05-10T05:39:48;13.68;64.00
77693;SHT31;66984;47.404;18.836;2023-05-10T05:40:51;13.71;64.22
77693;SHT31;66984;47.404;18.836;2023-05-10T05:41:54;13.70;64.31
77693;SHT31;66984;47.404;18.836;2023-05-10T05:42:57;13.75;64.04
77693;SHT31;66984;47.404;18.836;2023-05-10T05:44:00;13.77;64.03
77693;SHT31;66984;47.404;18.836;2023-05-10T05:45:03;13.78;64.07
77693;SHT31;66984;47.404;18.836;2023-05-10T05:46:06;13.84;64.24
77693;SHT31;66984;47.404;18.836;2023-05-10T05:47:09;13.89;64.03
77693;SHT31;66984;47.404;18.836;2023-05-10T05:48:13;13.94;63.77
77693;SHT31;66984;47.404;18.836;2023-05-10T05:49:15;13.92;63.38
77693;SHT31;66984;47.404;18.836;2023-05-10T05:50:19;13.92;63.13
77693;SHT31;66984;47.404;18.836;2023-05-10T05:51:22;13.95;63.23
77693;SHT31;66984;47.404;18.836;2023-05-10T05:52:24;13.97;63.35
77693;SHT31;66984;47.404;18.836;2023-05-10T05:53:27;14.01;63.21
77693;SHT31;66984;47.404;18.836;2023-05-10T05:54:31;14.04;63.09
77693;SHT31;66984;47.404;18.836;2023-05-10T05:55:33;14.05;62.69
77693;SHT31;66984;47.404;18.836;2023-05-10T05:56:36;14.08;62.48
77693;SHT31;66984;47.404;18.836;2023-05-10T05:57:40;14.12;62.80
77693;SHT31;66984;47.404;18.836;2023-05-10T05:58:43;14.18;62.89
77693;SHT31;66984;47.404;18.836;2023-05-10T05:59:46;14.21;62.81
77693;SHT31;66984;47.404;18.836;2023-05-10T06:00:51;14.26;62.63
77693;SHT31;66984;47.404;18.836;2023-05-10T06:01:54;14.29;62.83
77693;SHT31;66984;47.404;18.836;2023-05-10T06:02:57;14.33;63.12
77693;SHT31;66984;47.404;18.836;2023-05-10T06:04:00;14.40;62.46
77693;SHT31;66984;47.404;18.836;2023-05-10T06:05:03;14.46;61.51
77693;SHT31;66984;47.404;18.836;2023-05-10T06:06:06;14.49;61.54
77693;SHT31;66984;47.404;18.836;2023-05-10T06:07:09;14.55;61.59
77693;SHT31;66984;47.404;18.836;2023-05-10T06:08:12;14.57;61.54
77693;SHT31;66984;47.404;18.836;2023-05-10T06:09:15;14.62;60.67
77693;SHT31;66984;47.404;18.836;2023-05-10T06:10:18;14.64;60.62
77693;SHT31;66984;47.404;18.836;2023-05-10T06:11:21;14.72;60.86
77693;SHT31;66984;47.404;18.836;2023-05-10T06:12:24;14.70;60.08
77693;SHT31;66984;47.404;18.836;2023-05-10T06:13:27;14.76;59.98
77693;SHT31;66984;47.404;18.836;2023-05-10T06:14:34;14.77;59.79
77693;SHT31;66984;47.404;18.836;2023-05-10T06:15:39;14.79;59.90
77693;SHT31;66984;47.404;18.836;2023-05-10T06:16:42;14.80;59.62
77693;SHT31;66984;47.404;18.836;2023-05-10T06:17:45;14.83;59.64
77693;SHT31;66984;47.404;18.836;2023-05-10T06:18:49;14.87;59.75
77693;SHT31;66984;47.404;18.836;2023-05-10T06:19:52;14.90;59.92
77693;SHT31;66984;47.404;18.836;2023-05-10T06:20:55;14.94;59.40
77693;SHT31;66984;47.404;18.836;2023-05-10T06:21:58;14.98;59.36
77693;SHT31;66984;47.404;18.836;2023-05-10T06:23:01;15.00;59.03
77693;SHT31;66984;47.404;18.836;2023-05-10T06:24:05;15.03;58.70
77693;SHT31;66984;47.404;18.836;2023-05-10T06:25:09;15.04;58.48
77693;SHT31;66984;47.404;18.836;2023-05-10T06:26:12;15.04;58.56
77693;SHT31;66984;47.404;18.836;2023-05-10T06:27:16;15.05;58.84
77693;SHT31;66984;47.404;18.836;2023-05-10T06:28:19;15.12;58.95
77693;SHT31;66984;47.404;18.836;2023-05-10T06:29:22;15.15;58.95
77693;SHT31;66984;47.404;18.836;2023-05-10T06:30:25;15.17;58.69
77693;SHT31;66984;47.404;18.836;2023-05-10T06:31:30;15.22;58.11
77693;SHT31;66984;47.404;18.836;2023-05-10T06:32:33;15.24;58.26
77693;SHT31;66984;47.404;18.836;2023-05-10T06:33:36;15.25;58.19
77693;SHT31;66984;47.404;18.836;2023-05-10T06:34:39;15.30;58.25
77693;SHT31;66984;47.404;18.836;2023-05-10T06:35:42;15.30;57.89
77693;SHT31;66984;47.404;18.836;2023-05-10T06:36:45;15.31;57.91
77693;SHT31;66984;47.404;18.836;2023-05-10T06:37:49;15.32;58.33
77693;SHT31;66984;47.404;18.836;2023-05-10T06:38:52;15.30;57.82
77693;SHT31;66984;47.404;18.836;2023-05-10T06:39:55;15.36;57.91
77693;SHT31;66984;47.404;18.836;2023-05-10T06:40:58;15.42;57.62
77693;SHT31;66984;47.404;18.836;2023-05-10T06:42:01;15.46;57.38
77693;SHT31;66984;47.404;18.836;2023-05-10T06:43:06;15.55;57.79
77693;SHT31;66984;47.404;18.836;2023-05-10T06:44:08;15.59;58.12
77693;SHT31;66984;47.404;18.836;2023-05-10T06:45:12;15.66;57.81
77693;SHT31;66984;47.404;18.836;2023-05-10T06:46:15;15.72;57.84
77693;SHT31;66984;47.404;18.836;2023-05-10T06:47:19;15.73;57.73
77693;SHT31;66984;47.404;18.836;2023-05-10T06:48:21;15.78;57.87
77693;SHT31;66984;47.404;18.836;2023-05-10T06:49:24;15.76;57.08
77693;SHT31;66984;47.404;18.836;2023-05-10T06:50:27;15.83;57.09
77693;SHT31;66984;47.404;18.836;2023-05-10T06:51:30;15.89;56.56
77693;SHT31;66984;47.404;18.836;2023-05-10T06:52:33;15.90;56.47
77693;SHT31;66984;47.404;18.836;2023-05-10T06:53:36;15.94;56.92
77693;SHT31;66984;47.404;18.836;2023-05-10T06:54:39;15.99;56.37
77693;SHT31;66984;47.404;18.836;2023-05-10T06:55:42;16.06;56.39